createdAt,value
2022-11-09T00:00:12.659Z,80.52
2022-11-09T00:02:43.846Z,80.82
2022-11-09T00:05:12.940Z,80.76
2022-11-09T00:07:40.403Z,80.43
2022-11-09T00:10:08.446Z,80.63
2022-11-09T00:12:35.933Z,80.67
2022-11-09T00:15:03.433Z,81.25
2022-11-09T00:17:30.899Z,80.97
2022-11-09T00:19:58.344Z,81.16
2022-11-09T00:22:27.162Z,80.92
2022-11-09T00:24:54.663Z,80.86
2022-11-09T00:27:22.148Z,81.23
2022-11-09T00:29:49.623Z,81.05
2022-11-09T00:32:17.050Z,81.24
2022-11-09T00:34:45.036Z,81.61
2022-11-09T00:37:12.528Z,81.32
2022-11-09T00:39:41.372Z,81.35
2022-11-09T00:42:08.879Z,81.26
2022-11-09T00:44:36.331Z,81.16
2022-11-09T00:47:03.807Z,81.29
2022-11-09T00:49:31.279Z,81.47
2022-11-09T00:51:58.753Z,81.48
2022-11-09T00:54:26.219Z,81.32
2022-11-09T00:56:55.108Z,81.09
2022-11-09T00:59:22.551Z,81.26
2022-11-09T01:01:50.011Z,81.66
2022-11-09T01:04:17.507Z,81.62
2022-11-09T01:06:45.037Z,81.28
2022-11-09T01:09:13.572Z,81.38
2022-11-09T01:11:41.104Z,81.19
2022-11-09T01:14:10.156Z,81.57
2022-11-09T01:16:37.975Z,81.72
2022-11-09T01:19:05.571Z,81.48
2022-11-09T01:21:33.049Z,81.70
2022-11-09T01:24:01.600Z,81.67
2022-11-09T01:26:29.558Z,81.62
2022-11-09T01:28:57.022Z,81.60
2022-11-09T01:31:26.212Z,81.58
2022-11-09T01:33:53.779Z,82.01
2022-11-09T01:36:23.722Z,81.96
2022-11-09T01:38:51.564Z,81.93
2022-11-09T01:41:21.082Z,82.03
2022-11-09T01:44:04.698Z,81.71
2022-11-09T01:46:36.508Z,82.00
2022-11-09T01:49:08.063Z,82.09
2022-11-09T01:51:38.315Z,81.76
2022-11-09T01:54:07.855Z,81.79
2022-11-09T01:56:35.352Z,81.59
2022-11-09T01:59:05.281Z,81.64
2022-11-09T02:01:34.203Z,81.72
2022-11-09T02:04:05.413Z,81.66
2022-11-09T02:06:33.777Z,81.62
2022-11-09T02:09:06.951Z,81.72
2022-11-09T02:11:36.159Z,82.23
2022-11-09T02:14:03.959Z,82.26
2022-11-09T02:16:31.452Z,81.97
2022-11-09T02:19:01.740Z,82.48
2022-11-09T02:21:31.915Z,82.22
2022-11-09T02:24:00.118Z,82.63
2022-11-09T02:26:31.107Z,82.28
2022-11-09T02:28:59.723Z,82.71
2022-11-09T02:31:30.594Z,82.42
2022-11-09T02:34:04.063Z,82.47
2022-11-09T02:36:32.895Z,82.59
2022-11-09T02:39:00.404Z,82.61
2022-11-09T02:41:28.823Z,82.83
2022-11-09T02:43:56.310Z,82.88
2022-11-09T02:46:32.924Z,83.08
2022-11-09T02:49:00.732Z,82.75
2022-11-09T02:51:31.421Z,82.59
2022-11-09T02:54:00.289Z,82.48
2022-11-09T02:56:27.816Z,82.68
2022-11-09T02:58:55.579Z,82.53
2022-11-09T03:01:23.272Z,82.42
2022-11-09T03:03:50.989Z,82.79
2022-11-09T03:06:18.511Z,82.43
2022-11-09T03:08:46.169Z,82.10
2022-11-09T03:11:15.076Z,82.59
2022-11-09T03:13:42.647Z,82.61
2022-11-09T03:16:10.620Z,82.66
2022-11-09T03:18:40.382Z,83.00
2022-11-09T03:21:09.741Z,82.39
2022-11-09T03:23:37.272Z,82.80
2022-11-09T03:26:04.984Z,82.57
2022-11-09T03:28:33.967Z,82.73
2022-11-09T03:31:01.559Z,82.52
2022-11-09T03:33:29.646Z,82.78
2022-11-09T03:35:57.251Z,83.04
2022-11-09T03:38:24.874Z,83.13
2022-11-09T03:40:52.461Z,82.52
2022-11-09T03:43:20.272Z,83.20
2022-11-09T03:45:49.605Z,82.90
2022-11-09T03:48:17.249Z,83.18
2022-11-09T03:50:44.771Z,82.88
2022-11-09T03:53:12.758Z,83.17
2022-11-09T03:55:40.867Z,83.23
2022-11-09T03:58:10.502Z,83.07
2022-11-09T04:00:38.032Z,83.09
2022-11-09T04:03:06.811Z,83.40
2022-11-09T04:05:34.286Z,83.12
2022-11-09T04:08:02.989Z,83.04
2022-11-09T04:10:30.439Z,83.37
2022-11-09T04:12:58.411Z,83.43
2022-11-09T04:15:25.862Z,83.16
2022-11-09T04:17:57.606Z,83.08
2022-11-09T04:20:26.595Z,83.15
2022-11-09T04:22:57.761Z,83.26
2022-11-09T04:25:25.839Z,82.92
2022-11-09T04:27:56.821Z,83.02
2022-11-09T04:30:24.770Z,83.16
2022-11-09T04:32:52.269Z,82.91
2022-11-09T04:35:19.726Z,83.20
2022-11-09T04:37:55.879Z,82.93
2022-11-09T04:40:23.774Z,83.08
2022-11-09T04:42:51.546Z,82.99
2022-11-09T04:45:19.228Z,82.52
2022-11-09T04:47:46.689Z,83.45
2022-11-09T04:50:14.397Z,83.04
2022-11-09T04:52:41.956Z,82.98
2022-11-09T04:55:10.893Z,83.20
2022-11-09T04:57:38.408Z,82.90
2022-11-09T05:00:07.165Z,82.78
2022-11-09T05:02:34.628Z,82.71
2022-11-09T05:05:02.087Z,82.54
2022-11-09T05:07:29.544Z,83.08
2022-11-09T05:09:57.019Z,83.41
2022-11-09T05:12:25.787Z,83.58
2022-11-09T05:14:53.263Z,82.94
2022-11-09T05:17:20.687Z,83.10
2022-11-09T05:19:49.592Z,82.22
2022-11-09T05:22:44.923Z,82.71
2022-11-09T05:25:12.548Z,83.01
2022-11-09T05:27:41.322Z,83.61
2022-11-09T05:30:09.771Z,83.34
2022-11-09T05:32:39.351Z,83.48
2022-11-09T05:35:07.909Z,83.50
2022-11-09T05:37:35.448Z,83.59
2022-11-09T05:40:02.902Z,83.47
2022-11-09T05:42:30.337Z,83.67
2022-11-09T05:45:15.050Z,83.34
2022-11-09T05:47:46.638Z,83.57
2022-11-09T05:50:16.845Z,83.54
2022-11-09T05:52:44.403Z,83.40
2022-11-09T05:55:11.859Z,83.47
2022-11-09T05:57:39.284Z,83.90
2022-11-09T06:00:11.085Z,84.14
2022-11-09T06:02:38.779Z,84.08
2022-11-09T06:05:06.652Z,84.36
2022-11-09T06:07:34.207Z,84.32
2022-11-09T06:10:03.899Z,84.78
2022-11-09T06:12:31.786Z,84.60
2022-11-09T06:14:59.271Z,84.63
2022-11-09T06:17:28.042Z,84.81
2022-11-09T06:19:55.587Z,84.74
2022-11-09T06:22:23.093Z,84.33
2022-11-09T06:24:50.617Z,84.31
2022-11-09T06:27:18.251Z,84.33
2022-11-09T06:29:45.931Z,84.50
2022-11-09T06:32:13.442Z,84.20
2022-11-09T06:34:43.162Z,84.08
2022-11-09T06:37:10.677Z,84.38
2022-11-09T06:39:38.195Z,84.15
2022-11-09T06:42:05.727Z,84.80
2022-11-09T06:44:33.265Z,85.01
2022-11-09T06:47:00.767Z,84.89
2022-11-09T06:49:28.363Z,85.39
2022-11-09T06:51:57.328Z,84.99
2022-11-09T06:54:24.820Z,84.75
2022-11-09T06:56:54.817Z,84.77
2022-11-09T06:59:22.427Z,84.73
2022-11-09T07:01:50.129Z,85.09
2022-11-09T07:04:17.649Z,85.58
2022-11-09T07:06:45.278Z,85.09
2022-11-09T07:09:14.141Z,85.01
2022-11-09T07:11:41.600Z,85.35
2022-11-09T07:14:09.145Z,84.88
2022-11-09T07:16:37.352Z,85.19
2022-11-09T07:19:04.823Z,85.70
2022-11-09T07:21:32.296Z,85.47
2022-11-09T07:23:59.827Z,85.48
2022-11-09T07:26:28.652Z,85.90
2022-11-09T07:28:56.128Z,85.63
2022-11-09T07:31:23.628Z,85.62
2022-11-09T07:33:51.284Z,85.71
2022-11-09T07:36:21.634Z,85.58
2022-11-09T07:38:49.383Z,85.76
2022-11-09T07:41:16.867Z,85.60
2022-11-09T07:43:45.730Z,85.21
2022-11-09T07:46:13.233Z,85.59
2022-11-09T07:48:40.715Z,86.18
2022-11-09T07:51:08.224Z,86.23
2022-11-09T07:53:35.736Z,86.43
2022-11-09T07:56:04.497Z,86.45
2022-11-09T07:58:32.757Z,86.61
2022-11-09T08:01:01.651Z,86.92
2022-11-09T08:03:29.103Z,86.10
2022-11-09T08:05:57.947Z,86.14
2022-11-09T08:08:25.534Z,86.45
2022-11-09T08:10:53.072Z,86.50
2022-11-09T08:13:21.359Z,86.65
2022-11-09T08:15:49.365Z,86.02
2022-11-09T08:18:20.858Z,86.72
2022-11-09T08:20:48.663Z,86.02
2022-11-09T08:23:18.630Z,86.10
2022-11-09T08:25:46.132Z,86.52
2022-11-09T08:28:15.158Z,86.92
2022-11-09T08:30:43.213Z,86.97
2022-11-09T08:33:11.248Z,87.09
2022-11-09T08:35:41.237Z,87.43
2022-11-09T08:38:08.681Z,87.04
2022-11-09T08:40:36.203Z,87.61
2022-11-09T08:43:05.373Z,88.03
2022-11-09T08:45:34.647Z,87.71
2022-11-09T08:48:02.929Z,87.48
2022-11-09T08:50:32.063Z,87.23
2022-11-09T08:53:01.217Z,86.95
2022-11-09T08:55:28.688Z,87.42
2022-11-09T08:57:57.122Z,87.16
2022-11-09T09:00:24.831Z,87.01
2022-11-09T09:02:52.481Z,86.87
2022-11-09T09:05:19.952Z,87.75
2022-11-09T09:07:47.459Z,89.10
2022-11-09T09:10:16.351Z,89.86
2022-11-09T09:12:43.905Z,89.50
2022-11-09T09:15:11.738Z,90.41
2022-11-09T09:17:39.212Z,90.90
2022-11-09T09:20:07.923Z,90.92
2022-11-09T09:22:35.693Z,91.43
2022-11-09T09:25:03.459Z,91.59
2022-11-09T09:27:32.332Z,91.79
2022-11-09T09:29:59.931Z,91.75
2022-11-09T09:32:27.526Z,92.29
2022-11-09T09:34:55.067Z,92.71
2022-11-09T09:37:22.732Z,93.21
2022-11-09T09:39:50.260Z,92.50
2022-11-09T09:42:20.536Z,92.60
2022-11-09T09:44:54.132Z,92.42
2022-11-09T09:47:24.788Z,92.19
2022-11-09T09:49:56.045Z,91.49
2022-11-09T09:52:30.212Z,91.09
2022-11-09T09:55:00.944Z,90.78
2022-11-09T09:57:29.791Z,90.72
2022-11-09T10:00:01.920Z,90.65
2022-11-09T10:02:30.644Z,90.39
2022-11-09T10:05:00.729Z,89.72
2022-11-09T10:07:31.741Z,89.05
2022-11-09T10:10:14.536Z,88.89
2022-11-09T10:12:52.927Z,88.75
2022-11-09T10:15:26.723Z,88.80
2022-11-09T10:18:03.573Z,88.93
2022-11-09T10:20:42.160Z,89.43
2022-11-09T10:23:29.782Z,88.71
2022-11-09T10:26:05.554Z,88.77
2022-11-09T10:28:54.733Z,88.84
2022-11-09T10:31:31.504Z,87.98
2022-11-09T10:34:03.677Z,89.15
2022-11-09T10:36:38.120Z,88.69
2022-11-09T10:39:05.694Z,88.30
2022-11-09T10:41:36.259Z,87.78
2022-11-09T10:44:03.773Z,87.62
2022-11-09T10:47:07.141Z,87.18
2022-11-09T10:49:35.043Z,87.20
2022-11-09T10:52:02.963Z,86.32
2022-11-09T10:54:33.640Z,87.27
2022-11-09T10:57:06.960Z,86.35
2022-11-09T10:59:45.670Z,86.79
2022-11-09T11:02:41.733Z,86.31
2022-11-09T11:05:29.092Z,85.95
2022-11-09T11:07:56.839Z,86.48
2022-11-09T11:10:24.902Z,86.87
2022-11-09T11:12:58.293Z,86.78
2022-11-09T11:15:27.407Z,87.07
2022-11-09T11:18:03.069Z,86.91
2022-11-09T11:20:32.132Z,85.88
2022-11-09T11:23:12.677Z,85.69
2022-11-09T11:25:55.885Z,85.55
2022-11-09T11:28:30.063Z,85.12
2022-11-09T11:30:57.637Z,84.50
2022-11-09T11:33:26.680Z,83.93
2022-11-09T11:35:57.420Z,84.85
2022-11-09T11:38:30.099Z,84.13
2022-11-09T11:41:03.692Z,83.51
2022-11-09T11:43:39.285Z,83.44
2022-11-09T11:46:15.619Z,82.92
2022-11-09T11:49:06.055Z,82.37
2022-11-09T11:51:40.719Z,81.87
2022-11-09T11:54:15.627Z,82.31
2022-11-09T11:56:45.943Z,82.13
2022-11-09T11:59:29.755Z,82.00
2022-11-09T12:02:09.227Z,81.39
2022-11-09T12:04:54.140Z,81.22
2022-11-09T12:07:28.700Z,81.18
2022-11-09T12:10:08.335Z,81.19
2022-11-09T12:12:41.832Z,80.82
2022-11-09T12:15:33.003Z,80.89
2022-11-09T12:18:09.487Z,80.17
2022-11-09T12:20:45.140Z,80.43
2022-11-09T12:23:22.569Z,80.21
2022-11-09T12:25:57.848Z,80.05
2022-11-09T12:28:35.957Z,79.88
2022-11-09T12:31:13.028Z,79.97
2022-11-09T12:33:45.170Z,80.23
2022-11-09T12:36:17.938Z,80.10
2022-11-09T12:38:54.147Z,80.04
2022-11-09T12:41:23.598Z,80.96
2022-11-09T12:43:55.461Z,80.14
2022-11-09T12:46:28.179Z,80.78
2022-11-09T12:48:56.574Z,80.67
2022-11-09T12:51:25.664Z,80.23
2022-11-09T12:53:53.273Z,80.34
2022-11-09T12:56:25.804Z,79.97
2022-11-09T12:58:53.393Z,80.39
2022-11-09T13:01:45.026Z,79.90
2022-11-09T13:04:17.457Z,80.00
2022-11-09T13:07:39.356Z,79.46
2022-11-09T13:10:25.217Z,78.11
2022-11-09T13:13:02.916Z,77.57
2022-11-09T13:15:32.412Z,77.92
2022-11-09T13:18:03.664Z,76.60
2022-11-09T13:20:55.442Z,76.36
2022-11-09T13:24:00.097Z,77.15
2022-11-09T13:26:57.120Z,77.04
2022-11-09T13:29:26.892Z,76.85
2022-11-09T13:32:18.072Z,76.75
2022-11-09T13:34:47.506Z,76.73
2022-11-09T13:37:37.678Z,75.73
2022-11-09T13:40:38.486Z,75.97
2022-11-09T13:43:15.456Z,75.60
2022-11-09T13:45:46.003Z,76.25
2022-11-09T13:48:28.298Z,76.35
2022-11-09T13:50:56.814Z,75.20
2022-11-09T13:53:29.655Z,75.74
2022-11-09T13:55:57.429Z,75.71
2022-11-09T13:58:29.900Z,75.42
2022-11-09T14:00:57.451Z,74.95
2022-11-09T14:03:26.323Z,74.36
2022-11-09T14:05:55.991Z,74.96
2022-11-09T14:08:25.087Z,74.95
2022-11-09T14:11:09.569Z,75.08
2022-11-09T14:13:51.564Z,75.08
2022-11-09T14:16:26.447Z,74.92
2022-11-09T14:19:04.618Z,75.10
2022-11-09T14:21:40.492Z,75.77
2022-11-09T14:24:16.204Z,75.28
2022-11-09T14:27:06.331Z,75.48
2022-11-09T14:29:35.431Z,75.05
2022-11-09T14:32:04.044Z,75.38
2022-11-09T14:34:31.626Z,75.45
2022-11-09T14:37:04.547Z,75.77
2022-11-09T14:39:34.267Z,75.51
2022-11-09T14:42:02.044Z,75.63
2022-11-09T14:44:32.231Z,75.82
2022-11-09T14:47:01.304Z,75.54
2022-11-09T14:49:29.046Z,75.99
2022-11-09T14:51:56.587Z,75.78
2022-11-09T14:54:26.272Z,76.29
2022-11-09T14:56:54.689Z,76.43
2022-11-09T14:59:29.211Z,76.65
2022-11-09T15:02:04.037Z,76.72
2022-11-09T15:04:31.751Z,76.79
2022-11-09T15:07:02.349Z,76.95
2022-11-09T15:09:34.146Z,77.15
2022-11-09T15:12:01.688Z,77.36
2022-11-09T15:14:30.713Z,77.23
2022-11-09T15:17:02.989Z,77.47
2022-11-09T15:19:32.587Z,77.74
2022-11-09T15:22:00.505Z,77.49
2022-11-09T15:24:29.543Z,77.59
2022-11-09T15:26:58.026Z,77.80
2022-11-09T15:29:31.981Z,78.50
2022-11-09T15:32:02.936Z,78.46
2022-11-09T15:34:34.287Z,78.39
2022-11-09T15:37:01.793Z,78.39
2022-11-09T15:39:29.452Z,77.77
2022-11-09T15:41:57.681Z,78.00
2022-11-09T15:44:25.156Z,77.70
2022-11-09T15:46:54.272Z,77.48
2022-11-09T15:49:25.208Z,77.80
2022-11-09T15:51:53.507Z,77.57
2022-11-09T15:54:21.061Z,77.38
2022-11-09T15:56:48.724Z,77.66
2022-11-09T15:59:20.691Z,77.43
2022-11-09T16:01:48.374Z,77.67
2022-11-09T16:04:15.991Z,77.51
2022-11-09T16:06:46.838Z,77.46
2022-11-09T16:09:14.803Z,77.16
2022-11-09T16:11:42.293Z,77.65
2022-11-09T16:14:09.853Z,77.02
2022-11-09T16:16:37.328Z,77.29
2022-11-09T16:19:05.023Z,77.79
2022-11-09T16:21:32.503Z,77.24
2022-11-09T16:24:01.344Z,77.35
2022-11-09T16:26:28.872Z,77.22
2022-11-09T16:28:56.372Z,77.17
2022-11-09T16:31:50.187Z,77.05
2022-11-09T16:34:11.339Z,77.07
2022-11-09T16:36:46.455Z,76.81
2022-11-09T16:39:17.912Z,76.77
2022-11-09T16:41:48.016Z,76.94
2022-11-09T16:44:16.932Z,77.01
2022-11-09T16:46:46.559Z,76.67
2022-11-09T16:49:14.314Z,77.05
2022-11-09T16:51:41.836Z,77.08
2022-11-09T16:54:09.291Z,77.31
2022-11-09T16:56:38.203Z,77.45
2022-11-09T16:59:05.742Z,76.82
2022-11-09T17:01:33.719Z,76.94
2022-11-09T17:04:03.048Z,76.81
2022-11-09T17:06:30.541Z,76.99
2022-11-09T17:08:58.132Z,76.83
2022-11-09T17:11:25.806Z,76.58
2022-11-09T17:13:58.272Z,76.64
2022-11-09T17:16:26.176Z,76.41
2022-11-09T17:18:54.544Z,75.91
2022-11-09T17:21:22.473Z,76.41
2022-11-09T17:23:50.847Z,75.86
2022-11-09T17:26:18.913Z,75.56
2022-11-09T17:28:46.368Z,75.33
2022-11-09T17:31:16.714Z,75.63
2022-11-09T17:33:44.871Z,75.13
2022-11-09T17:36:14.571Z,75.00
2022-11-09T17:38:42.049Z,75.14
2022-11-09T17:41:11.177Z,74.94
2022-11-09T17:43:40.883Z,75.32
2022-11-09T17:46:10.355Z,75.20
2022-11-09T17:48:40.486Z,75.33
2022-11-09T17:51:12.708Z,74.89
2022-11-09T17:53:40.391Z,74.81
2022-11-09T17:56:09.683Z,74.62
2022-11-09T17:58:39.956Z,74.66
2022-11-09T18:01:08.450Z,74.86
2022-11-09T18:03:37.226Z,74.70
2022-11-09T18:06:10.980Z,74.79
2022-11-09T18:08:38.525Z,74.45
2022-11-09T18:11:06.375Z,74.24
2022-11-09T18:13:33.829Z,73.96
2022-11-09T18:16:06.364Z,74.02
2022-11-09T18:18:34.105Z,74.05
2022-11-09T18:21:07.752Z,74.30
2022-11-09T18:23:36.052Z,74.15
2022-11-09T18:28:56.593Z,74.48
2022-11-09T18:31:24.104Z,74.45
2022-11-09T18:33:51.660Z,74.60
2022-11-09T18:36:21.975Z,74.47
2022-11-09T18:38:51.715Z,74.28
2022-11-09T18:41:22.505Z,73.97
2022-11-09T18:43:51.059Z,74.12
2022-11-09T18:46:19.869Z,73.97
2022-11-09T18:48:51.330Z,74.26
2022-11-09T18:51:20.589Z,74.10
2022-11-09T18:53:49.059Z,74.16
2022-11-09T18:56:21.439Z,74.17
2022-11-09T18:58:49.921Z,74.23
2022-11-09T19:01:17.650Z,74.19
2022-11-09T19:03:45.350Z,74.07
2022-11-09T19:06:14.548Z,74.18
2022-11-09T19:09:00.904Z,74.09
2022-11-09T19:11:29.880Z,74.10
2022-11-09T19:13:57.358Z,73.91
2022-11-09T19:16:25.730Z,74.16
2022-11-09T19:18:53.296Z,74.17
2022-11-09T19:21:30.130Z,73.97
2022-11-09T19:23:58.954Z,74.22
2022-11-09T19:26:26.410Z,73.67
2022-11-09T19:28:53.886Z,73.97
2022-11-09T19:31:23.239Z,73.82
2022-11-09T19:33:50.864Z,74.05
2022-11-09T19:36:34.316Z,73.75
2022-11-09T19:39:03.530Z,74.27
2022-11-09T19:41:31.008Z,74.19
2022-11-09T19:43:59.275Z,74.50
2022-11-09T19:46:27.267Z,74.56
2022-11-09T19:48:54.810Z,74.57
2022-11-09T19:51:22.386Z,74.36
2022-11-09T19:53:51.162Z,74.51
2022-11-09T19:56:20.985Z,74.54
2022-11-09T19:58:50.064Z,74.70
2022-11-09T20:01:17.991Z,74.58
2022-11-09T20:03:45.500Z,74.52
2022-11-09T20:06:13.128Z,74.97
2022-11-09T20:08:40.778Z,74.99
2022-11-09T20:11:09.648Z,75.16
2022-11-09T20:13:39.342Z,74.99
2022-11-09T20:16:09.493Z,75.33
2022-11-09T20:18:37.583Z,75.19
2022-11-09T20:21:07.131Z,75.70
2022-11-09T20:23:34.599Z,75.59
2022-11-09T20:26:05.536Z,75.50
2022-11-09T20:28:33.262Z,75.72
2022-11-09T20:31:03.958Z,75.91
2022-11-09T20:33:31.403Z,76.40
2022-11-09T20:35:58.873Z,75.87
2022-11-09T20:38:26.315Z,76.03
2022-11-09T20:40:55.154Z,76.69
2022-11-09T20:43:22.881Z,76.57
2022-11-09T20:45:50.664Z,76.95
2022-11-09T20:48:47.072Z,76.83
2022-11-09T20:51:09.368Z,77.31
2022-11-09T20:53:37.223Z,78.35
2022-11-09T20:56:05.231Z,79.69
2022-11-09T20:58:32.766Z,80.58
2022-11-09T21:01:02.100Z,81.63
2022-11-09T21:03:31.217Z,81.87
2022-11-09T21:05:59.503Z,82.24
2022-11-09T21:08:27.020Z,82.15
2022-11-09T21:10:54.909Z,81.97
2022-11-09T21:13:23.184Z,82.06
2022-11-09T21:15:50.621Z,81.55
2022-11-09T21:18:18.254Z,81.65
2022-11-09T21:20:47.175Z,82.13
2022-11-09T21:23:32.386Z,81.67
2022-11-09T21:26:18.123Z,80.37
2022-11-09T21:29:03.371Z,81.44
2022-11-09T21:31:30.810Z,81.71
2022-11-09T21:33:58.295Z,81.62
2022-11-09T21:36:27.089Z,81.60
2022-11-09T21:38:54.547Z,82.31
2022-11-09T21:41:40.127Z,81.42
2022-11-09T21:44:12.435Z,82.06
2022-11-09T21:46:41.154Z,82.31
2022-11-09T21:49:10.173Z,82.50
2022-11-09T21:51:40.155Z,82.06
2022-11-09T21:54:08.591Z,82.13
2022-11-09T21:56:36.255Z,82.70
2022-11-09T21:59:03.881Z,83.05
2022-11-09T22:01:31.931Z,82.76
2022-11-09T22:03:59.642Z,82.67
2022-11-09T22:06:27.558Z,82.91
2022-11-09T22:08:56.337Z,82.79
2022-11-09T22:11:45.829Z,83.19
2022-11-09T22:14:31.183Z,83.56
2022-11-09T22:16:58.792Z,83.04
2022-11-09T22:19:43.764Z,83.39
2022-11-09T22:22:11.480Z,83.73
2022-11-09T22:24:40.454Z,83.61
2022-11-09T22:27:07.956Z,83.68
2022-11-09T22:29:35.534Z,82.67
2022-11-09T22:32:03.068Z,83.10
2022-11-09T22:34:30.717Z,83.45
2022-11-09T22:36:58.264Z,83.50
2022-11-09T22:39:25.837Z,83.81
2022-11-09T22:41:54.770Z,83.71
2022-11-09T22:44:22.305Z,83.71
2022-11-09T22:46:49.887Z,83.84
2022-11-09T22:49:18.126Z,83.87
2022-11-09T22:51:45.667Z,83.80
2022-11-09T22:54:13.584Z,83.20
2022-11-09T22:56:41.070Z,83.11
2022-11-09T22:59:09.948Z,83.46
2022-11-09T23:01:37.436Z,84.09
2022-11-09T23:04:05.242Z,84.26
2022-11-09T23:06:33.520Z,84.12
2022-11-09T23:09:01.040Z,83.72
2022-11-09T23:11:28.503Z,83.64
2022-11-09T23:13:56.672Z,83.59
2022-11-09T23:16:27.708Z,84.08
2022-11-09T23:18:54.702Z,84.00
2022-11-09T23:21:24.579Z,84.10
2022-11-09T23:23:52.774Z,84.32
2022-11-09T23:26:20.238Z,84.67
2022-11-09T23:28:47.762Z,83.63
2022-11-09T23:31:16.936Z,84.44
2022-11-09T23:33:45.933Z,83.66
2022-11-09T23:36:13.481Z,84.26
2022-11-09T23:38:41.816Z,84.33
2022-11-09T23:41:11.548Z,84.00
2022-11-09T23:43:39.212Z,84.18
2022-11-09T23:46:08.607Z,84.39
2022-11-09T23:48:36.038Z,84.88
2022-11-09T23:51:05.542Z,85.03
2022-11-09T23:53:33.179Z,85.05
2022-11-09T23:56:03.477Z,85.05
2022-11-09T23:58:31.483Z,84.62
